Pike Station, Illinois
Current Conditions -  °F | °C
As of 6:55 PM on Wednesday 22 Oct 2014 (Local Time) from KPPQ Reporting Station
Clear Clear  
Wind Chill: 11°   Ceiling: Unl
Heat Index: 11°   Visibility: 10mi
Dew Point:   Wind: 5mph
Humidity: 64%   Direction: 130°SE
Pressure: 30.21"   Gusts: NA
Location:  39.5365°N, 91.0118°W
Report Text: KPPQ 222355Z AUTO 13004KT 10SM CLR 12/05 A3021 RMK AO2 T01150050 10178 20115
Loading
Personal Weather Stations






























Interactive Weather Map
Tropical Storm Tracking
New forecast layout! Learn more

10-Day Weather Forecast

Advertisements
Track Severe Weather on mobile